createdAt,value
2022-08-12T00:00:10.994Z,54.61
2022-08-12T00:02:56.407Z,55.02
2022-08-12T00:05:57.182Z,55.18
2022-08-12T00:08:48.722Z,55.51
2022-08-12T00:11:34.700Z,55.99
2022-08-12T00:14:20.445Z,56.00
2022-08-12T00:17:08.333Z,55.74
2022-08-12T00:19:54.241Z,56.63
2022-08-12T00:22:40.321Z,56.89
2022-08-12T00:26:05.702Z,57.20
2022-08-12T00:28:32.600Z,57.64
2022-08-12T00:31:18.370Z,57.46
2022-08-12T00:34:05.568Z,57.91
2022-08-12T00:36:51.435Z,57.86
2022-08-12T00:39:37.153Z,57.71
2022-08-12T00:42:10.749Z,58.29
2022-08-12T00:44:40.972Z,58.92
2022-08-12T00:47:24.480Z,59.52
2022-08-12T00:49:56.123Z,59.40
2022-08-12T00:52:25.093Z,59.40
2022-08-12T00:54:57.414Z,59.45
2022-08-12T00:57:30.113Z,60.23
2022-08-12T01:00:00.589Z,59.89
2022-08-12T01:02:30.717Z,59.50
2022-08-12T01:05:20.262Z,59.29
2022-08-12T01:08:07.484Z,59.31
2022-08-12T01:10:54.910Z,60.14
2022-08-12T01:13:23.607Z,59.84
2022-08-12T01:15:54.820Z,60.26
2022-08-12T01:18:25.024Z,61.16
2022-08-12T01:21:07.955Z,61.37
2022-08-12T01:24:27.995Z,61.39
2022-08-12T01:26:56.065Z,60.87
2022-08-12T01:29:32.790Z,60.89
2022-08-12T01:32:06.449Z,60.77
2022-08-12T01:34:38.739Z,61.51
2022-08-12T01:37:12.819Z,62.25
2022-08-12T01:40:34.588Z,62.47
2022-08-12T01:42:44.590Z,61.95
2022-08-12T01:45:13.567Z,61.57
2022-08-12T01:48:04.934Z,62.30
2022-08-12T01:50:47.658Z,62.18
2022-08-12T01:53:16.216Z,62.24
2022-08-12T01:55:47.673Z,62.57
2022-08-12T01:58:32.006Z,62.92
2022-08-12T02:01:04.754Z,62.53
2022-08-12T02:04:05.045Z,62.93
2022-08-12T02:07:11.538Z,63.38
2022-08-12T02:10:50.802Z,63.21
2022-08-12T02:13:10.102Z,63.07
2022-08-12T02:15:52.622Z,62.86
2022-08-12T02:18:27.597Z,63.18
2022-08-12T02:21:05.495Z,63.41
2022-08-12T02:23:35.217Z,64.63
2022-08-12T02:26:08.186Z,65.13
2022-08-12T02:28:38.317Z,65.61
2022-08-12T02:31:12.720Z,64.88
2022-08-12T02:33:41.797Z,65.50
2022-08-12T02:36:10.305Z,65.27
2022-08-12T02:38:43.241Z,65.69
2022-08-12T02:41:13.693Z,67.00
2022-08-12T02:43:50.006Z,67.01
2022-08-12T02:46:25.693Z,66.46
2022-08-12T02:48:59.421Z,66.67
2022-08-12T02:51:32.036Z,67.01
2022-08-12T02:54:05.414Z,67.07
2022-08-12T02:56:38.034Z,67.45
2022-08-12T02:59:12.377Z,67.95
2022-08-12T03:01:48.246Z,67.52
2022-08-12T03:04:26.788Z,68.20
2022-08-12T03:07:10.743Z,68.01
2022-08-12T03:10:02.214Z,67.63
2022-08-12T03:12:40.058Z,67.66
2022-08-12T03:15:22.219Z,67.50
2022-08-12T03:18:25.908Z,67.38
2022-08-12T03:20:49.640Z,67.69
2022-08-12T03:23:28.753Z,68.42
2022-08-12T03:25:58.978Z,68.01
2022-08-12T03:28:41.345Z,68.00
2022-08-12T03:31:11.176Z,67.43
2022-08-12T03:33:45.679Z,67.33
2022-08-12T03:36:33.618Z,67.03
2022-08-12T03:39:17.314Z,65.69
2022-08-12T03:41:51.354Z,63.53
2022-08-12T03:44:46.165Z,61.52
2022-08-12T03:47:38.254Z,61.39
2022-08-12T03:50:26.078Z,58.62
2022-08-12T03:53:11.955Z,56.53
2022-08-12T03:55:57.536Z,55.16
2022-08-12T03:58:44.264Z,53.21
2022-08-12T04:01:13.296Z,54.02
2022-08-12T04:03:55.475Z,54.64
2022-08-12T04:06:34.418Z,52.61
2022-08-12T04:09:16.627Z,52.54
2022-08-12T04:12:04.641Z,51.00
2022-08-12T04:14:33.709Z,49.33
2022-08-12T04:17:03.499Z,51.13
2022-08-12T04:19:32.314Z,52.20
2022-08-12T04:22:03.653Z,52.67
2022-08-12T04:24:35.511Z,52.55
2022-08-12T04:27:05.809Z,53.09
2022-08-12T04:30:30.252Z,55.03
2022-08-12T04:32:24.168Z,54.44
2022-08-12T04:34:55.502Z,54.21
2022-08-12T04:37:25.442Z,56.90
2022-08-12T04:39:55.313Z,56.70
2022-08-12T04:42:26.266Z,58.56
2022-08-12T04:44:55.319Z,57.21
2022-08-12T04:47:25.486Z,57.32
2022-08-12T04:49:54.048Z,53.68
2022-08-12T04:52:22.902Z,54.37
2022-08-12T04:54:53.412Z,51.25
2022-08-12T04:57:21.666Z,52.05
2022-08-12T04:59:49.845Z,49.25
2022-08-12T05:02:21.795Z,50.50
2022-08-12T05:04:52.818Z,46.96
2022-08-12T05:07:21.436Z,45.14
2022-08-12T05:09:59.250Z,45.82
2022-08-12T05:12:36.870Z,41.94
2022-08-12T05:15:19.881Z,43.58
2022-08-12T05:18:00.175Z,43.67
2022-08-12T05:20:30.966Z,43.60
2022-08-12T05:23:13.058Z,46.97
2022-08-12T05:25:43.374Z,47.99
2022-08-12T05:28:14.616Z,48.29
2022-08-12T05:30:43.546Z,47.75
2022-08-12T05:33:13.563Z,47.70
2022-08-12T05:35:43.566Z,49.92
2022-08-12T05:38:45.350Z,49.97
2022-08-12T05:41:20.717Z,47.15
2022-08-12T05:43:52.701Z,47.51
2022-08-12T05:46:21.379Z,44.95
2022-08-12T05:48:51.435Z,46.82
2022-08-12T05:51:20.030Z,45.95
2022-08-12T05:53:48.408Z,47.26
2022-08-12T05:56:25.939Z,46.66
2022-08-12T05:58:55.985Z,45.90
2022-08-12T06:02:08.925Z,45.49
2022-08-12T06:04:14.850Z,46.42
2022-08-12T06:06:43.359Z,44.91
2022-08-12T06:09:12.297Z,46.32
2022-08-12T06:12:04.204Z,47.85
2022-08-12T06:14:35.274Z,48.06
2022-08-12T06:17:04.533Z,48.68
2022-08-12T06:20:27.501Z,46.77
2022-08-12T06:22:20.922Z,46.06
2022-08-12T06:24:49.949Z,47.69
2022-08-12T06:27:19.107Z,47.93
2022-08-12T06:30:09.311Z,48.29
2022-08-12T06:32:42.830Z,45.80
2022-08-12T06:35:24.930Z,42.86
2022-08-12T06:37:57.686Z,43.25
2022-08-12T06:40:40.148Z,42.62
2022-08-12T06:43:08.692Z,41.03
2022-08-12T06:45:46.812Z,38.31
2022-08-12T06:48:16.554Z,38.37
2022-08-12T06:50:46.156Z,35.48
2022-08-12T06:53:14.336Z,37.51
2022-08-12T06:55:58.177Z,41.28
2022-08-12T06:58:27.858Z,41.91
2022-08-12T07:00:58.896Z,41.19
2022-08-12T07:03:29.140Z,41.76
2022-08-12T07:05:58.407Z,42.83
2022-08-12T07:08:29.367Z,41.77
2022-08-12T07:11:00.191Z,39.44
2022-08-12T07:13:31.062Z,39.85
2022-08-12T07:16:01.346Z,42.19
2022-08-12T07:18:33.031Z,40.43
2022-08-12T07:21:04.070Z,40.76
2022-08-12T07:23:33.638Z,40.56
2022-08-12T07:26:03.077Z,41.05
2022-08-12T07:28:35.009Z,43.33
2022-08-12T07:31:08.030Z,44.31
2022-08-12T07:33:39.627Z,42.44
2022-08-12T07:36:10.937Z,45.38
2022-08-12T07:38:43.866Z,43.62
2022-08-12T07:41:15.847Z,43.06
2022-08-12T07:43:46.368Z,40.60
2022-08-12T07:46:18.261Z,42.87
2022-08-12T07:48:50.100Z,43.49
2022-08-12T07:51:25.231Z,44.52
2022-08-12T07:54:00.097Z,45.42
2022-08-12T07:56:32.164Z,45.35
2022-08-12T07:59:01.276Z,45.72
2022-08-12T08:01:32.895Z,46.45
2022-08-12T08:04:19.571Z,47.38
2022-08-12T08:06:50.497Z,47.14
2022-08-12T08:09:22.621Z,47.83
2022-08-12T08:12:08.734Z,47.47
2022-08-12T08:14:37.263Z,46.79
2022-08-12T08:17:10.575Z,46.63
2022-08-12T08:20:03.057Z,47.18
2022-08-12T08:22:50.176Z,49.45
2022-08-12T08:25:35.223Z,49.43
2022-08-12T08:28:06.114Z,48.26
2022-08-12T08:30:34.740Z,47.41
2022-08-12T08:33:08.656Z,48.13
2022-08-12T08:35:54.269Z,49.00
2022-08-12T08:38:32.110Z,47.52
2022-08-12T08:42:14.227Z,47.07
2022-08-12T08:44:11.047Z,46.88
2022-08-12T08:46:40.108Z,47.03
2022-08-12T08:49:10.090Z,47.22
2022-08-12T08:51:39.094Z,46.29
2022-08-12T08:54:11.634Z,45.89
2022-08-12T08:56:50.440Z,46.17
2022-08-12T08:59:20.007Z,45.32
2022-08-12T09:01:49.369Z,44.10
2022-08-12T09:05:07.545Z,44.45
2022-08-12T09:07:17.897Z,45.05
2022-08-12T09:13:03.350Z,48.61
2022-08-12T09:15:36.349Z,51.03
2022-08-12T09:20:57.357Z,51.22
2022-08-12T09:26:19.764Z,50.77
2022-08-12T09:28:52.855Z,50.61
2022-08-12T09:32:07.773Z,49.70
2022-08-12T09:34:27.692Z,49.71
2022-08-12T09:37:20.205Z,51.52
2022-08-12T09:40:00.663Z,49.46
2022-08-12T09:43:11.284Z,48.88
2022-08-12T09:46:19.822Z,48.81
2022-08-12T09:48:26.790Z,50.96
2022-08-12T09:51:03.650Z,50.01
2022-08-12T09:53:36.299Z,51.23
2022-08-12T09:57:02.758Z,50.52
2022-08-12T09:59:01.350Z,51.22
2022-08-12T10:01:35.604Z,51.49
2022-08-12T10:04:20.677Z,50.75
2022-08-12T10:06:55.317Z,50.43
2022-08-12T10:09:28.606Z,51.18
2022-08-12T10:12:33.375Z,50.68
2022-08-12T10:15:02.286Z,50.64
2022-08-12T10:17:31.179Z,50.73
2022-08-12T10:20:01.563Z,51.09
2022-08-12T10:22:40.458Z,49.67
2022-08-12T10:26:18.489Z,49.59
2022-08-12T10:28:36.302Z,49.11
2022-08-12T10:31:16.237Z,47.95
2022-08-12T10:34:05.431Z,47.41
2022-08-12T10:36:40.064Z,46.78
2022-08-12T10:40:00.287Z,48.91
2022-08-12T10:42:18.373Z,50.33
2022-08-12T10:45:01.057Z,50.69
2022-08-12T10:48:15.855Z,50.42
2022-08-12T10:50:28.487Z,49.77
2022-08-12T10:53:10.024Z,51.37
2022-08-12T10:55:39.647Z,51.85
2022-08-12T10:58:15.401Z,52.65
2022-08-12T11:01:26.061Z,51.20
2022-08-12T11:04:35.393Z,50.61
2022-08-12T11:07:06.191Z,52.96
2022-08-12T11:09:51.263Z,53.02
2022-08-12T11:12:56.933Z,52.60
2022-08-12T11:15:18.816Z,53.10
2022-08-12T11:17:53.990Z,52.95
2022-08-12T11:20:29.101Z,53.60
2022-08-12T11:23:03.507Z,53.37
2022-08-12T11:25:55.992Z,54.71
2022-08-12T11:28:34.562Z,54.42
2022-08-12T11:31:12.317Z,55.94
2022-08-12T11:34:05.190Z,55.79
2022-08-12T11:36:31.518Z,55.44
2022-08-12T11:39:04.445Z,54.03
2022-08-12T11:41:34.838Z,54.66
2022-08-12T11:44:29.160Z,56.47
2022-08-12T11:46:54.831Z,56.03
2022-08-12T11:49:31.719Z,55.33
2022-08-12T11:52:17.647Z,58.64
2022-08-12T11:54:54.335Z,61.48
2022-08-12T11:58:17.264Z,61.82
2022-08-12T12:03:02.306Z,60.68
2022-08-12T12:05:41.977Z,60.30
2022-08-12T12:08:41.111Z,61.29
2022-08-12T12:11:10.064Z,60.05
2022-08-12T12:14:07.371Z,60.06
2022-08-12T12:16:27.053Z,60.96
2022-08-12T12:18:59.548Z,60.68
2022-08-12T12:21:48.100Z,61.17
2022-08-12T12:24:21.253Z,62.54
2022-08-12T12:26:59.732Z,63.33
2022-08-12T12:30:19.077Z,63.41
2022-08-12T12:32:18.469Z,64.61
2022-08-12T12:35:18.228Z,62.44
2022-08-12T12:38:03.238Z,64.85
2022-08-12T12:40:34.558Z,64.60
2022-08-12T12:43:05.514Z,63.88
2022-08-12T12:45:35.739Z,63.82
2022-08-12T12:48:05.704Z,63.64
2022-08-12T12:50:42.709Z,63.70
2022-08-12T12:54:07.152Z,64.78
2022-08-12T12:56:13.254Z,64.69
2022-08-12T12:58:43.473Z,64.22
2022-08-12T13:01:25.514Z,63.95
2022-08-12T13:04:01.893Z,63.83
2022-08-12T13:06:32.470Z,63.67
2022-08-12T13:09:03.854Z,63.38
2022-08-12T13:11:41.175Z,63.91
2022-08-12T13:14:28.953Z,65.41
2022-08-12T13:17:02.889Z,65.43
2022-08-12T13:19:37.748Z,65.37
2022-08-12T13:22:23.753Z,66.52
2022-08-12T13:24:56.546Z,66.04
2022-08-12T13:27:34.437Z,66.42
2022-08-12T13:30:06.871Z,66.10
2022-08-12T13:32:39.427Z,65.89
2022-08-12T13:35:19.775Z,66.32
2022-08-12T13:38:02.713Z,65.71
2022-08-12T13:40:33.808Z,66.18
2022-08-12T13:43:07.171Z,66.91
2022-08-12T13:45:36.666Z,65.97
2022-08-12T13:48:06.813Z,65.89
2022-08-12T13:50:37.761Z,66.38
2022-08-12T13:53:24.587Z,67.52
2022-08-12T13:55:59.374Z,67.53
2022-08-12T13:58:34.719Z,66.95
2022-08-12T14:01:08.585Z,67.30
2022-08-12T14:03:50.287Z,66.51
2022-08-12T14:06:20.809Z,67.83
2022-08-12T14:08:50.777Z,68.11
2022-08-12T14:11:25.142Z,67.45
2022-08-12T14:14:03.783Z,66.49
2022-08-12T14:16:48.538Z,66.71
2022-08-12T14:19:24.434Z,67.34
2022-08-12T14:21:58.847Z,67.88
2022-08-12T14:24:40.359Z,67.93
2022-08-12T14:27:10.504Z,67.84
2022-08-12T14:30:04.926Z,67.44
2022-08-12T14:32:35.200Z,68.13
2022-08-12T14:35:09.450Z,68.74
2022-08-12T14:37:55.045Z,68.67
2022-08-12T14:40:29.617Z,68.18
2022-08-12T14:42:59.220Z,67.87
2022-08-12T14:45:44.525Z,67.37
2022-08-12T14:48:19.624Z,67.88
2022-08-12T14:52:54.642Z,68.04
2022-08-12T14:55:24.713Z,67.85
2022-08-12T14:59:57.658Z,67.66
2022-08-12T15:02:29.687Z,67.64
2022-08-12T15:04:59.779Z,68.07
2022-08-12T15:07:33.569Z,68.41
2022-08-12T15:10:25.445Z,69.11
2022-08-12T15:13:07.532Z,68.19
2022-08-12T15:15:43.846Z,67.78
2022-08-12T15:18:15.728Z,68.88
2022-08-12T15:20:50.627Z,68.09
2022-08-12T15:23:21.623Z,67.61
2022-08-12T15:25:59.700Z,67.80
2022-08-12T15:28:35.015Z,68.55
2022-08-12T15:31:21.435Z,68.63
2022-08-12T15:33:52.754Z,68.38
2022-08-12T15:36:36.487Z,68.37
2022-08-12T15:39:16.906Z,68.81
2022-08-12T15:41:49.280Z,69.19
2022-08-12T15:44:42.420Z,69.49
2022-08-12T15:47:09.424Z,69.18
2022-08-12T15:49:54.159Z,68.68
2022-08-12T15:52:27.930Z,69.81
2022-08-12T15:54:58.741Z,69.74
2022-08-12T15:57:28.107Z,70.15
2022-08-12T16:00:07.315Z,70.20
2022-08-12T16:02:50.175Z,70.77
2022-08-12T16:06:19.413Z,71.37
2022-08-12T16:08:15.516Z,71.27
2022-08-12T16:10:45.979Z,71.27
2022-08-12T16:13:32.581Z,71.10
2022-08-12T16:16:12.291Z,71.20
2022-08-12T16:18:59.463Z,71.40
2022-08-12T16:21:52.164Z,71.62
2022-08-12T16:24:18.920Z,71.65
2022-08-12T16:26:51.563Z,71.68
2022-08-12T16:29:38.578Z,71.53
2022-08-12T16:32:21.204Z,72.03
2022-08-12T16:34:54.689Z,71.99
2022-08-12T16:37:32.271Z,72.84
2022-08-12T16:40:04.796Z,73.15
2022-08-12T16:42:39.201Z,73.64
2022-08-12T16:45:32.108Z,74.11
2022-08-12T16:48:35.426Z,74.81
2022-08-12T16:51:04.233Z,76.20
2022-08-12T16:53:44.672Z,75.57
2022-08-12T16:56:14.952Z,75.27
2022-08-12T16:58:43.926Z,75.47
2022-08-12T17:01:14.718Z,75.29
2022-08-12T17:03:46.948Z,75.80
2022-08-12T17:06:22.235Z,76.99
2022-08-12T17:09:08.700Z,77.09
2022-08-12T17:11:49.171Z,75.94
2022-08-12T17:14:20.281Z,76.12
2022-08-12T17:16:54.960Z,76.37
2022-08-12T17:20:16.251Z,76.70
2022-08-12T17:22:21.799Z,77.48
2022-08-12T17:24:55.965Z,77.35
2022-08-12T17:27:26.296Z,77.38
2022-08-12T17:30:00.808Z,77.44
2022-08-12T17:32:33.760Z,78.09
2022-08-12T17:35:20.953Z,78.01
2022-08-12T17:37:50.879Z,77.81
2022-08-12T17:40:35.974Z,77.81
2022-08-12T17:43:56.048Z,77.42
2022-08-12T17:45:59.035Z,78.16
2022-08-12T17:48:34.099Z,78.81
2022-08-12T17:51:16.007Z,79.11
2022-08-12T17:54:10.514Z,78.77
2022-08-12T17:56:37.349Z,79.06
2022-08-12T17:59:12.475Z,79.11
2022-08-12T18:01:45.202Z,79.03
2022-08-12T18:04:22.782Z,79.66
2022-08-12T18:07:06.385Z,79.58
2022-08-12T18:09:37.536Z,79.69
2022-08-12T18:12:24.277Z,80.10
2022-08-12T18:14:58.457Z,80.29
2022-08-12T18:17:31.059Z,80.54
2022-08-12T18:20:04.940Z,80.72
2022-08-12T18:22:38.622Z,80.53
2022-08-12T18:26:11.446Z,80.76
2022-08-12T18:28:15.163Z,80.96
2022-08-12T18:30:52.496Z,80.81
2022-08-12T18:33:25.117Z,80.88
2022-08-12T18:35:57.044Z,81.05
2022-08-12T18:38:28.270Z,81.21
2022-08-12T18:41:21.611Z,81.21
2022-08-12T18:44:00.279Z,81.24
2022-08-12T18:46:38.402Z,81.63
2022-08-12T18:49:17.087Z,82.11
2022-08-12T18:51:55.255Z,82.32
2022-08-12T18:54:27.742Z,82.57
2022-08-12T18:56:59.292Z,82.80
2022-08-12T18:59:59.896Z,82.72
2022-08-12T19:02:22.485Z,83.09
2022-08-12T19:04:53.336Z,83.31
2022-08-12T19:07:23.173Z,83.33
2022-08-12T19:09:58.261Z,83.13
2022-08-12T19:12:56.910Z,83.28
2022-08-12T19:15:27.375Z,83.51
2022-08-12T19:18:02.729Z,83.14
2022-08-12T19:20:31.979Z,83.00
2022-08-12T19:23:07.509Z,83.13
2022-08-12T19:25:55.422Z,83.31
2022-08-12T19:28:35.311Z,83.11
2022-08-12T19:31:45.169Z,83.73
2022-08-12T19:37:22.886Z,83.17
2022-08-12T19:40:10.317Z,82.68
2022-08-12T19:42:53.333Z,82.28
2022-08-12T19:45:22.655Z,82.33
2022-08-12T19:47:51.445Z,82.41
2022-08-12T19:50:20.459Z,82.70
2022-08-12T19:52:55.059Z,83.04
2022-08-12T19:55:23.892Z,83.56
2022-08-12T19:58:02.946Z,83.05
2022-08-12T20:00:34.705Z,82.78
2022-08-12T20:03:07.841Z,82.75
2022-08-12T20:06:04.904Z,82.18
2022-08-12T20:08:34.001Z,82.26
2022-08-12T20:12:11.454Z,81.60
2022-08-12T20:14:00.492Z,81.48
2022-08-12T20:19:53.090Z,75.87
2022-08-12T20:22:23.933Z,73.73
2022-08-12T20:24:55.392Z,72.46
2022-08-12T20:27:29.060Z,71.19
2022-08-12T20:30:16.346Z,72.53
2022-08-12T20:32:55.126Z,70.99
2022-08-12T20:36:06.351Z,70.42
2022-08-12T20:38:26.851Z,71.37
2022-08-12T20:40:55.982Z,72.47
2022-08-12T20:43:28.186Z,72.89
2022-08-12T20:46:01.586Z,73.86
2022-08-12T20:48:30.637Z,73.65
2022-08-12T20:51:04.581Z,74.28
2022-08-12T20:53:57.841Z,74.57
2022-08-12T20:56:30.859Z,75.97
2022-08-12T20:59:01.471Z,75.25
2022-08-12T21:01:46.046Z,74.15
2022-08-12T21:04:35.484Z,72.69
2022-08-12T21:07:09.802Z,72.28
2022-08-12T21:09:42.012Z,71.75
2022-08-12T21:12:31.517Z,71.39
2022-08-12T21:15:23.808Z,71.03
2022-08-12T21:18:11.568Z,71.11
2022-08-12T21:20:52.902Z,72.22
2022-08-12T21:23:22.867Z,71.57
2022-08-12T21:25:52.713Z,71.31
2022-08-12T21:28:27.578Z,71.96
2022-08-12T21:32:37.616Z,71.73
2022-08-12T21:34:07.039Z,71.51
2022-08-12T21:36:39.640Z,71.11
2022-08-12T21:39:20.466Z,70.12
2022-08-12T21:41:50.990Z,70.04
2022-08-12T21:45:44.614Z,69.68
2022-08-12T21:47:19.616Z,69.13
2022-08-12T21:50:03.476Z,68.21
2022-08-12T21:52:36.524Z,67.60
2022-08-12T21:55:08.481Z,67.61
2022-08-12T21:57:50.626Z,66.79
2022-08-12T22:00:31.575Z,66.72
2022-08-12T22:04:01.254Z,66.80
2022-08-12T22:06:31.782Z,65.71
2022-08-12T22:09:16.850Z,66.16
2022-08-12T22:11:49.229Z,65.86
2022-08-12T22:14:25.456Z,66.06
2022-08-12T22:16:55.991Z,66.03
2022-08-12T22:19:24.708Z,65.93
2022-08-12T22:21:58.458Z,66.45
2022-08-12T22:24:30.379Z,67.07
2022-08-12T22:27:08.191Z,67.32
2022-08-12T22:30:06.158Z,67.49
2022-08-12T22:32:36.601Z,67.12
2022-08-12T22:35:24.370Z,67.89
2022-08-12T22:38:10.969Z,68.21
2022-08-12T22:40:39.761Z,68.71
2022-08-12T22:43:29.482Z,68.40
2022-08-12T22:46:23.474Z,68.30
2022-08-12T22:48:58.936Z,68.59
2022-08-12T22:51:27.088Z,68.47
2022-08-12T22:54:07.874Z,68.38
2022-08-12T22:56:57.586Z,68.74
2022-08-12T22:59:51.195Z,68.56
2022-08-12T23:02:28.973Z,68.61
2022-08-12T23:04:58.432Z,68.59
2022-08-12T23:07:27.629Z,68.37
2022-08-12T23:10:10.618Z,68.64
2022-08-12T23:12:58.551Z,68.89
2022-08-12T23:15:26.794Z,68.83
2022-08-12T23:17:58.082Z,69.41
2022-08-12T23:20:27.618Z,69.07
2022-08-12T23:23:03.003Z,69.36
2022-08-12T23:25:54.577Z,69.13
2022-08-12T23:28:42.305Z,69.88
2022-08-12T23:31:10.834Z,69.97
2022-08-12T23:34:01.595Z,69.64
2022-08-12T23:36:31.884Z,70.37
2022-08-12T23:40:15.530Z,70.54
2022-08-12T23:42:16.611Z,70.69
2022-08-12T23:44:48.636Z,71.04
2022-08-12T23:47:22.774Z,71.44
2022-08-12T23:49:57.917Z,71.80
2022-08-12T23:52:34.737Z,71.59
2022-08-12T23:55:24.171Z,71.96
2022-08-12T23:58:22.531Z,72.06
